Marion, VA

8:26 PM EST on January 16, 2018 (GMT -0500)
Mountain Empire | | Change Station
Active Advisory: Winter Weather Advisory

Elev 2559 ft 36.89 °N, 81.35 °W | Updated 11 minutes ago

Overcast
Overcast
31 °F
Feels Like 23 °F
N
9
Wind Variable Wind from WNW

Today
High -- | Low -- °F
--% Chance of Precip.
Yesterday
High -- | Low -- °F
Precip. -- in
Pressure 30.27 in
Visibility 10.0 miles
Clouds Scattered Clouds 1600 ft
Mostly Cloudy 2000 ft
Overcast 4800 ft
Windchill 23 °F
Dew Point 24 °F
Humidity 76%
Rainfall 0.00 in
Snow Depth Not available.
7:37 AM 5:33 PM
Waning Crescent, 0% visible
METAR KMKJ 170115Z AUTO 29008KT 10SM SCT016 BKN020 OVC048 00/M04 A3027 RMK AO2 T10041042
Pressure 30.27 in
Visibility 10.0 miles
Clouds Scattered Clouds 1600 ft
Mostly Cloudy 2000 ft
Overcast 4800 ft
Windchill 23 °F
Dew Point 24 °F
Humidity 76%
Rainfall 0.00 in
Snow Depth Not available.
7:37 AM 5:33 PM
Waning Crescent, 0% visible
METAR KMKJ 170115Z AUTO 29008KT 10SM SCT016 BKN020 OVC048 00/M04 A3027 RMK AO2 T10041042

Get Your Daily Forecast Email!

Thanks for signing up!

Be on the lookout for a verification email in your inbox.

You'll start receiving severe weather alerts in your inbox..

×

10-Day Weather Forecast

Almanac

Astronomy

Jan. 16, 2018 Rise Set
Actual Time
Civil Twilight
Nautical Twilight
Astronomical Twilight
Moon
Length of Visible Light
Length of Day
Tomorrow will be .
, % of the Moon is Illuminated

Today's Extremes

State Highs State Lows

Community

WunderPhotos

Category 6

Welcome to Category 6. This is the collective home for Weather Underground's featured writeups by Dr. Jeff Masters (right), Bob Henson (left), Chris Burt, and other regular contributors.

Nearby

Air Quality

  Air Quality AQ Index Pollutant
Not available.

Snow Depth

Station Depth Elevation

Earthquake Activity

City Distance Mag. Time & Date
Minimum magnitude displayed is 2.5.

Coastal Water Temperatures

Place Temperature

Stations

Nearby Weather Stations

Station Location Temp. Windchill Dew Point Humidity Wind Precip. Elev Updated Type
                   

Watches & Warnings

Winter Weather Advisory
Issued: 5:01 PM EST Jan. 16, 2018 – National Weather Service

... Winter Weather Advisory remains in effect until 10 am EST
Wednesday...

* what... snow expected. Plan on slippery Road conditions. Total
snow accumulations of 1 to 3 inches are expected.

* Where... parts of southwest Virginia and southeast West
Virginia.

* When... through 10 am EST Wednesday.

* Additional details... be prepared for reduced visibilities at
times. Cold wind chills as low as 5 below zero will cause
frostbite in as little as 30 minutes to exposed skin.

Precautionary/preparedness actions...

A Winter Weather Advisory for snow means periods of snow will
cause primarily travel difficulties. Be prepared for snow covered
roads and limited visibilities, and use caution while driving.
The latest Road conditions for the state you are calling from can
be obtained by calling 5 1 1.